createdAt,value
2022-10-02T00:01:30.809Z,1.90
2022-10-02T00:03:58.256Z,1.87
2022-10-02T00:06:38.873Z,1.90
2022-10-02T00:09:07.439Z,2.20
2022-10-02T00:11:42.990Z,1.90
2022-10-02T00:14:15.312Z,2.30
2022-10-02T00:16:46.664Z,2.20
2022-10-02T00:19:17.391Z,1.87
2022-10-02T00:22:05.095Z,2.30
2022-10-02T00:24:36.281Z,1.87
2022-10-02T00:27:13.272Z,1.77
2022-10-02T00:29:48.639Z,2.40
2022-10-02T00:32:22.885Z,2.13
2022-10-02T00:35:28.694Z,1.97
2022-10-02T00:38:01.228Z,1.63
2022-10-02T00:40:42.798Z,2.13
2022-10-02T00:43:22.008Z,2.17
2022-10-02T00:46:19.617Z,1.93
2022-10-02T00:49:06.339Z,1.93
2022-10-02T00:51:53.889Z,2.23
2022-10-02T00:54:30.239Z,1.43
2022-10-02T00:57:08.999Z,2.53
2022-10-02T00:59:50.183Z,2.10
2022-10-02T01:02:51.039Z,2.23
2022-10-02T01:05:19.311Z,2.33
2022-10-02T01:07:50.696Z,1.60
2022-10-02T01:10:17.801Z,2.17
2022-10-02T01:12:45.153Z,2.00
2022-10-02T01:15:13.147Z,2.07
2022-10-02T01:17:40.169Z,2.50
2022-10-02T01:20:14.231Z,2.10
2022-10-02T01:22:46.413Z,2.20
2022-10-02T01:25:14.932Z,1.97
2022-10-02T01:27:41.858Z,1.63
2022-10-02T01:30:11.542Z,2.33
2022-10-02T01:32:41.293Z,2.57
2022-10-02T01:35:09.350Z,2.50
2022-10-02T01:37:39.441Z,1.97
2022-10-02T01:40:09.811Z,2.27
2022-10-02T01:42:39.422Z,2.43
2022-10-02T01:45:08.996Z,2.30
2022-10-02T01:47:42.934Z,2.20
2022-10-02T01:50:17.281Z,1.60
2022-10-02T01:52:50.030Z,2.00
2022-10-02T01:55:31.062Z,2.13
2022-10-02T01:58:15.061Z,2.43
2022-10-02T02:00:52.957Z,2.30
2022-10-02T02:03:25.035Z,2.43
2022-10-02T02:05:59.903Z,2.30
2022-10-02T02:08:31.647Z,1.20
2022-10-02T02:11:10.102Z,1.83
2022-10-02T02:13:45.167Z,2.27
2022-10-02T02:16:21.769Z,2.67
2022-10-02T02:18:53.850Z,1.80
2022-10-02T02:21:23.909Z,3.07
2022-10-02T02:23:52.851Z,2.33
2022-10-02T02:26:21.598Z,1.67
2022-10-02T02:28:54.837Z,2.00
2022-10-02T02:31:25.005Z,1.90
2022-10-02T02:33:55.746Z,1.70
2022-10-02T02:36:26.933Z,1.30
2022-10-02T02:38:57.746Z,1.30
2022-10-02T02:41:27.580Z,1.60
2022-10-02T02:44:00.005Z,1.10
2022-10-02T02:46:32.851Z,1.30
2022-10-02T02:49:04.895Z,0.80
2022-10-02T02:51:36.349Z,0.90
2022-10-02T02:54:08.101Z,1.00
2022-10-02T02:56:36.167Z,0.77
2022-10-02T02:59:09.004Z,0.90
2022-10-02T03:01:35.817Z,1.10
2022-10-02T03:04:02.962Z,1.07
2022-10-02T03:06:33.420Z,1.10
2022-10-02T03:09:01.709Z,2.63
2022-10-02T03:11:41.914Z,1.80
2022-10-02T03:14:26.191Z,1.30
2022-10-02T03:17:01.254Z,1.40
2022-10-02T03:19:40.447Z,2.30
2022-10-02T03:22:15.435Z,1.73
2022-10-02T03:24:49.350Z,1.83
2022-10-02T03:27:23.311Z,2.43
2022-10-02T03:29:57.059Z,2.37
2022-10-02T03:32:25.310Z,1.70
2022-10-02T03:34:52.738Z,2.07
2022-10-02T03:37:20.650Z,2.17
2022-10-02T03:39:49.648Z,1.80
2022-10-02T03:42:20.916Z,1.73
2022-10-02T03:44:47.844Z,2.10
2022-10-02T03:47:16.066Z,2.10
2022-10-02T03:49:42.913Z,1.70
2022-10-02T03:52:15.225Z,2.17
2022-10-02T03:54:42.459Z,1.90
2022-10-02T03:57:13.837Z,1.93
2022-10-02T03:59:46.659Z,1.97
2022-10-02T04:02:25.845Z,2.17
2022-10-02T04:04:59.751Z,2.03
2022-10-02T04:07:32.417Z,2.10
2022-10-02T04:10:22.979Z,1.90
2022-10-02T04:12:54.103Z,1.40
2022-10-02T04:15:28.040Z,1.53
2022-10-02T04:18:01.077Z,2.20
2022-10-02T04:20:36.419Z,2.60
2022-10-02T04:23:09.121Z,1.80
2022-10-02T04:25:44.073Z,2.27
2022-10-02T04:28:13.780Z,2.23
2022-10-02T04:30:40.634Z,2.50
2022-10-02T04:33:14.078Z,3.20
2022-10-02T04:35:51.511Z,2.40
2022-10-02T04:38:48.558Z,2.60
2022-10-02T04:41:47.670Z,1.80
2022-10-02T04:44:26.944Z,3.00
2022-10-02T04:47:14.716Z,2.40
2022-10-02T04:50:02.760Z,2.00
2022-10-02T04:52:47.655Z,2.60
2022-10-02T04:55:40.124Z,3.00
2022-10-02T04:58:24.536Z,2.23
2022-10-02T05:01:01.500Z,2.60
2022-10-02T05:04:03.170Z,2.50
2022-10-02T05:06:45.324Z,2.20
2022-10-02T05:09:20.409Z,3.17
2022-10-02T05:12:18.780Z,3.23
2022-10-02T05:15:24.637Z,3.83
2022-10-02T05:18:12.562Z,3.37
2022-10-02T05:20:58.526Z,2.93
2022-10-02T05:23:43.947Z,2.80
2022-10-02T05:26:35.966Z,3.50
2022-10-02T05:29:29.114Z,3.07
2022-10-02T05:32:12.578Z,3.27
2022-10-02T05:34:54.621Z,2.93
2022-10-02T05:37:38.484Z,3.13
2022-10-02T05:40:17.272Z,3.40
2022-10-02T05:42:52.311Z,3.53
2022-10-02T05:45:26.277Z,3.17
2022-10-02T05:47:55.553Z,4.57
2022-10-02T05:50:27.342Z,4.10
2022-10-02T05:52:57.891Z,4.53
2022-10-02T05:55:31.891Z,4.00
2022-10-02T05:58:05.053Z,4.57
2022-10-02T06:00:38.435Z,4.87
2022-10-02T06:03:14.478Z,4.30
2022-10-02T06:05:47.438Z,4.10
2022-10-02T06:08:17.984Z,4.90
2022-10-02T06:10:49.902Z,5.40
2022-10-02T06:13:22.415Z,4.33
2022-10-02T06:15:53.168Z,5.20
2022-10-02T06:18:23.765Z,4.40
2022-10-02T06:20:54.002Z,4.40
2022-10-02T06:23:25.150Z,4.70
2022-10-02T06:25:56.447Z,5.00
2022-10-02T06:28:28.244Z,5.07
2022-10-02T06:31:00.779Z,4.53
2022-10-02T06:33:30.627Z,4.37
2022-10-02T06:36:11.788Z,5.23
2022-10-02T06:38:52.736Z,4.67
2022-10-02T06:41:33.021Z,4.27
2022-10-02T06:44:19.962Z,4.40
2022-10-02T06:46:55.240Z,4.47
2022-10-02T06:49:31.778Z,4.20
2022-10-02T06:52:06.862Z,5.00
2022-10-02T06:54:46.098Z,4.80
2022-10-02T06:57:29.462Z,4.87
2022-10-02T07:00:06.115Z,5.60
2022-10-02T07:02:58.076Z,5.10
2022-10-02T07:05:49.722Z,5.30
2022-10-02T07:08:25.023Z,5.60
2022-10-02T07:11:03.012Z,5.17
2022-10-02T07:13:42.417Z,6.00
2022-10-02T07:16:29.387Z,5.17
2022-10-02T07:19:10.407Z,4.90
2022-10-02T07:21:48.590Z,5.20
2022-10-02T07:24:30.704Z,6.10
2022-10-02T07:27:07.120Z,5.50
2022-10-02T07:29:43.736Z,6.37
2022-10-02T07:32:41.253Z,6.47
2022-10-02T07:35:40.642Z,5.57
2022-10-02T07:38:28.606Z,5.77
2022-10-02T07:41:17.351Z,6.10
2022-10-02T07:43:52.983Z,6.17
2022-10-02T07:46:27.210Z,5.60
2022-10-02T07:49:13.117Z,5.90
2022-10-02T07:51:45.619Z,7.57
2022-10-02T07:54:33.927Z,6.53
2022-10-02T07:57:20.227Z,7.33
2022-10-02T07:59:48.775Z,6.77
2022-10-02T08:02:27.170Z,5.53
2022-10-02T08:04:58.035Z,6.83
2022-10-02T08:07:25.258Z,6.90
2022-10-02T08:09:53.753Z,6.80
2022-10-02T08:12:28.756Z,6.20
2022-10-02T08:14:57.530Z,7.00
2022-10-02T08:17:32.156Z,7.00
2022-10-02T08:20:07.066Z,6.00
2022-10-02T08:22:39.406Z,7.80
2022-10-02T08:25:13.924Z,7.37
2022-10-02T08:27:51.154Z,5.90
2022-10-02T08:30:18.623Z,5.97
2022-10-02T08:32:47.039Z,6.20
2022-10-02T08:35:15.408Z,5.63
2022-10-02T08:38:00.496Z,5.57
2022-10-02T08:41:16.479Z,5.63
2022-10-02T08:44:25.964Z,5.57
2022-10-02T08:47:31.549Z,4.27
2022-10-02T08:50:30.898Z,6.00
2022-10-02T08:53:47.424Z,6.83
2022-10-02T08:56:28.966Z,5.40
2022-10-02T08:59:27.695Z,4.37
2022-10-02T09:02:48.581Z,4.97
2022-10-02T09:08:47.169Z,4.30
2022-10-02T09:11:58.632Z,4.60
2022-10-02T09:14:48.779Z,3.60
2022-10-02T09:17:38.005Z,5.27
2022-10-02T09:20:43.453Z,4.67
2022-10-02T09:23:41.270Z,4.30
2022-10-02T09:26:17.880Z,4.50
2022-10-02T09:29:23.726Z,4.90
2022-10-02T09:32:19.737Z,4.10
2022-10-02T09:35:22.874Z,4.83
2022-10-02T09:38:16.377Z,4.77
2022-10-02T09:41:28.580Z,4.80
2022-10-02T09:44:32.732Z,4.83
2022-10-02T09:47:23.496Z,4.27
2022-10-02T09:50:22.003Z,4.87
2022-10-02T09:53:14.365Z,4.87
2022-10-02T09:56:21.810Z,4.30
2022-10-02T09:59:26.543Z,4.17
2022-10-02T10:02:26.413Z,3.90
2022-10-02T10:05:20.017Z,3.80
2022-10-02T10:08:24.558Z,4.57
2022-10-02T10:11:19.854Z,4.60
2022-10-02T10:14:20.954Z,4.20
2022-10-02T10:17:19.186Z,3.13
2022-10-02T10:20:09.443Z,3.77
2022-10-02T10:23:14.478Z,3.47
2022-10-02T10:26:04.596Z,3.60
2022-10-02T10:29:04.212Z,4.20
2022-10-02T10:32:06.423Z,3.97
2022-10-02T10:35:06.635Z,4.47
2022-10-02T10:37:53.246Z,4.33
2022-10-02T10:40:35.340Z,3.90
2022-10-02T10:43:41.204Z,4.30
2022-10-02T10:46:39.090Z,2.93
2022-10-02T10:49:33.407Z,3.43
2022-10-02T10:52:12.208Z,2.57
2022-10-02T10:54:54.689Z,3.30
2022-10-02T10:57:58.053Z,3.50
2022-10-02T11:00:26.470Z,3.43
2022-10-02T11:03:03.576Z,3.33
2022-10-02T11:06:13.202Z,3.50
2022-10-02T11:09:05.894Z,3.73
2022-10-02T11:11:42.533Z,3.30
2022-10-02T11:14:25.172Z,2.50
2022-10-02T11:17:19.377Z,2.40
2022-10-02T11:20:02.883Z,3.40
2022-10-02T11:22:48.251Z,3.00
2022-10-02T11:25:39.522Z,2.73
2022-10-02T11:28:22.389Z,2.37
2022-10-02T11:31:02.251Z,2.53
2022-10-02T11:33:54.413Z,3.03
2022-10-02T11:36:37.854Z,3.00
2022-10-02T11:39:13.732Z,2.37
2022-10-02T11:42:17.522Z,2.30
2022-10-02T11:44:59.518Z,2.80
2022-10-02T11:47:56.938Z,2.20
2022-10-02T11:50:52.668Z,1.70
2022-10-02T11:53:43.003Z,2.30
2022-10-02T11:56:29.690Z,2.37
2022-10-02T11:59:14.820Z,1.70
2022-10-02T12:01:47.437Z,2.43
2022-10-02T12:04:25.219Z,1.60
2022-10-02T12:07:16.350Z,2.20
2022-10-02T12:09:57.011Z,1.90
2022-10-02T12:12:36.662Z,2.60
2022-10-02T12:15:13.457Z,1.90
2022-10-02T12:18:01.757Z,1.70
2022-10-02T12:20:50.406Z,1.77
2022-10-02T12:23:33.454Z,1.97
2022-10-02T12:26:07.778Z,2.23
2022-10-02T12:28:44.092Z,2.53
2022-10-02T12:31:18.912Z,2.10
2022-10-02T12:33:56.333Z,1.83
2022-10-02T12:36:39.698Z,1.70
2022-10-02T12:39:24.338Z,1.70
2022-10-02T12:42:07.661Z,2.50
2022-10-02T12:45:22.381Z,1.90
2022-10-02T12:48:05.123Z,1.80
2022-10-02T12:50:46.375Z,1.80
2022-10-02T12:53:35.870Z,1.60
2022-10-02T12:56:35.865Z,1.70
2022-10-02T12:59:11.772Z,1.63
2022-10-02T13:02:29.075Z,1.60
2022-10-02T13:05:44.590Z,2.07
2022-10-02T13:08:33.512Z,1.97
2022-10-02T13:11:09.096Z,2.40
2022-10-02T13:13:50.126Z,2.20
2022-10-02T13:16:25.290Z,1.90
2022-10-02T13:19:09.368Z,2.33
2022-10-02T13:21:48.623Z,2.37
2022-10-02T13:24:31.423Z,1.80
2022-10-02T13:27:12.068Z,2.10
2022-10-02T13:29:50.436Z,2.07
2022-10-02T13:32:43.489Z,1.83
2022-10-02T13:35:39.336Z,2.13
2022-10-02T13:38:24.309Z,1.30
2022-10-02T13:41:03.405Z,1.33
2022-10-02T13:43:46.357Z,1.47
2022-10-02T13:46:25.853Z,1.40
2022-10-02T13:49:07.381Z,1.60
2022-10-02T13:51:45.230Z,1.80
2022-10-02T13:54:39.725Z,1.60
2022-10-02T13:57:17.560Z,1.30
2022-10-02T14:00:00.830Z,1.30
2022-10-02T14:02:45.378Z,1.60
2022-10-02T14:05:25.002Z,1.70
2022-10-02T14:08:15.933Z,1.53
2022-10-02T14:10:56.036Z,1.10
2022-10-02T14:13:40.967Z,1.50
2022-10-02T14:16:19.896Z,1.27
2022-10-02T14:19:02.182Z,1.50
2022-10-02T14:21:34.716Z,1.67
2022-10-02T14:24:30.780Z,1.60
2022-10-02T14:27:07.365Z,1.43
2022-10-02T14:29:56.743Z,1.60
2022-10-02T14:32:42.726Z,1.90
2022-10-02T14:35:26.599Z,2.10
2022-10-02T14:38:16.585Z,1.63
2022-10-02T14:40:51.726Z,2.33
2022-10-02T14:43:41.138Z,1.87
2022-10-02T14:46:33.731Z,1.63
2022-10-02T14:49:25.509Z,2.07
2022-10-02T14:52:14.193Z,2.10
2022-10-02T14:54:58.345Z,1.80
2022-10-02T14:57:44.315Z,1.50
2022-10-02T15:03:05.854Z,2.37
2022-10-02T15:05:52.137Z,2.00
2022-10-02T15:08:26.308Z,1.87
2022-10-02T15:10:53.093Z,1.87
2022-10-02T15:13:33.267Z,2.33
2022-10-02T15:16:11.879Z,1.97
2022-10-02T15:18:47.131Z,1.60
2022-10-02T15:21:24.625Z,1.80
2022-10-02T15:23:51.715Z,2.57
2022-10-02T15:26:35.053Z,2.60
2022-10-02T15:29:14.490Z,1.93
2022-10-02T15:32:03.770Z,2.07
2022-10-02T15:34:40.529Z,2.57
2022-10-02T15:37:17.217Z,1.67
2022-10-02T15:40:16.504Z,1.63
2022-10-02T15:42:55.107Z,1.50
2022-10-02T15:45:56.724Z,1.70
2022-10-02T15:48:46.046Z,1.80
2022-10-02T15:51:29.652Z,1.60
2022-10-02T15:54:10.578Z,3.30
2022-10-02T15:57:00.913Z,2.17
2022-10-02T15:59:43.281Z,2.33
2022-10-02T16:02:28.800Z,1.90
2022-10-02T16:05:10.757Z,2.20
2022-10-02T16:08:07.844Z,1.87
2022-10-02T16:10:42.983Z,2.03
2022-10-02T16:13:44.863Z,1.90
2022-10-02T16:16:32.775Z,3.83
2022-10-02T16:19:13.174Z,2.50
2022-10-02T16:21:54.023Z,1.93
2022-10-02T16:24:40.580Z,2.30
2022-10-02T16:27:22.185Z,1.97
2022-10-02T16:30:08.946Z,2.40
2022-10-02T16:32:47.829Z,1.70
2022-10-02T16:35:44.991Z,1.83
2022-10-02T16:38:18.049Z,1.80
2022-10-02T16:40:55.663Z,1.90
2022-10-02T16:43:41.226Z,3.37
2022-10-02T16:46:10.766Z,5.07
2022-10-02T16:48:42.991Z,3.10
2022-10-02T16:51:17.474Z,4.07
2022-10-02T16:53:51.537Z,5.27
2022-10-02T16:56:25.249Z,2.60
2022-10-02T16:59:01.473Z,2.20
2022-10-02T17:01:33.965Z,2.53
2022-10-02T17:04:25.522Z,2.00
2022-10-02T17:06:58.156Z,2.20
2022-10-02T17:09:33.383Z,2.10
2022-10-02T17:12:09.856Z,2.00
2022-10-02T17:14:44.815Z,2.30
2022-10-02T17:17:18.354Z,1.63
2022-10-02T17:19:50.181Z,1.87
2022-10-02T17:22:27.418Z,2.00
2022-10-02T17:25:01.928Z,1.87
2022-10-02T17:27:42.670Z,2.80
2022-10-02T17:30:17.502Z,2.20
2022-10-02T17:33:07.849Z,2.33
2022-10-02T17:35:43.944Z,1.97
2022-10-02T17:38:25.484Z,2.77
2022-10-02T17:41:00.392Z,2.40
2022-10-02T17:43:37.555Z,2.63
2022-10-02T17:46:28.536Z,1.90
2022-10-02T17:48:58.744Z,2.00
2022-10-02T17:51:52.439Z,2.30
2022-10-02T17:54:41.956Z,2.67
2022-10-02T17:57:23.671Z,2.50
2022-10-02T18:00:07.918Z,1.97
2022-10-02T18:02:50.637Z,2.73
2022-10-02T18:05:27.423Z,2.13
2022-10-02T18:08:14.227Z,2.30
2022-10-02T18:10:55.060Z,2.37
2022-10-02T18:13:32.923Z,2.13
2022-10-02T18:16:16.995Z,2.03
2022-10-02T18:19:18.179Z,2.40
2022-10-02T18:21:50.989Z,2.53
2022-10-02T18:24:38.037Z,2.00
2022-10-02T18:27:17.094Z,2.20
2022-10-02T18:29:58.553Z,1.70
2022-10-02T18:32:43.434Z,2.47
2022-10-02T18:35:26.997Z,1.97
2022-10-02T18:38:01.897Z,2.20
2022-10-02T18:40:30.359Z,1.70
2022-10-02T18:43:24.069Z,2.33
2022-10-02T18:46:00.080Z,2.07
2022-10-02T18:48:58.440Z,1.70
2022-10-02T18:51:39.219Z,2.13
2022-10-02T18:54:19.481Z,3.20
2022-10-02T18:56:58.764Z,1.90
2022-10-02T18:59:38.346Z,1.83
2022-10-02T19:02:23.572Z,1.87
2022-10-02T19:05:10.918Z,1.73
2022-10-02T19:07:40.717Z,2.40
2022-10-02T19:10:21.523Z,4.60
2022-10-02T19:12:53.278Z,2.50
2022-10-02T19:15:23.767Z,1.80
2022-10-02T19:17:58.068Z,2.70
2022-10-02T19:20:41.486Z,2.23
2022-10-02T19:23:15.388Z,2.43
2022-10-02T19:25:46.091Z,1.87
2022-10-02T19:28:18.419Z,2.73
2022-10-02T19:30:49.567Z,2.20
2022-10-02T19:33:21.896Z,2.03
2022-10-02T19:35:50.291Z,2.07
2022-10-02T19:38:28.097Z,1.97
2022-10-02T19:40:58.097Z,2.07
2022-10-02T19:43:28.737Z,2.40
2022-10-02T19:45:59.945Z,3.10
2022-10-02T19:48:28.356Z,2.47
2022-10-02T19:50:58.891Z,2.30
2022-10-02T19:53:27.380Z,2.60
2022-10-02T19:55:57.039Z,2.07
2022-10-02T19:58:31.796Z,1.80
2022-10-02T20:00:59.159Z,2.80
2022-10-02T20:03:26.854Z,3.00
2022-10-02T20:05:57.170Z,2.17
2022-10-02T20:08:29.064Z,2.93
2022-10-02T20:11:01.829Z,2.67
2022-10-02T20:13:37.237Z,2.77
2022-10-02T20:16:12.393Z,2.53
2022-10-02T20:18:39.624Z,2.40
2022-10-02T20:21:12.373Z,2.13
2022-10-02T20:23:45.799Z,3.13
2022-10-02T20:26:24.754Z,3.30
2022-10-02T20:28:56.083Z,2.53
2022-10-02T20:31:33.701Z,2.03
2022-10-02T20:34:05.660Z,3.17
2022-10-02T20:36:35.434Z,2.80
2022-10-02T20:39:07.200Z,2.60
2022-10-02T20:41:50.103Z,2.23
2022-10-02T20:44:17.279Z,2.70
2022-10-02T20:47:11.247Z,3.37
2022-10-02T20:50:08.036Z,3.27
2022-10-02T20:53:03.992Z,2.97
2022-10-02T20:55:42.104Z,4.00
2022-10-02T20:58:40.178Z,3.70
2022-10-02T21:01:16.323Z,3.43
2022-10-02T21:04:25.794Z,3.43
2022-10-02T21:07:32.617Z,2.60
2022-10-02T21:10:30.879Z,4.00
2022-10-02T21:13:27.572Z,3.70
2022-10-02T21:16:21.688Z,2.80
2022-10-02T21:19:12.267Z,2.43
2022-10-02T21:22:18.176Z,3.20
2022-10-02T21:25:19.130Z,3.50
2022-10-02T21:28:21.339Z,3.13
2022-10-02T21:31:01.690Z,2.60
2022-10-02T21:33:31.828Z,2.20
2022-10-02T21:36:05.046Z,3.37
2022-10-02T21:39:12.434Z,3.03
2022-10-02T21:42:18.475Z,3.20
2022-10-02T21:45:09.673Z,2.33
2022-10-02T21:48:12.868Z,3.17
2022-10-02T21:51:08.676Z,2.30
2022-10-02T21:54:00.051Z,3.20
2022-10-02T21:57:00.400Z,3.07
2022-10-02T21:59:53.505Z,2.60
2022-10-02T22:02:39.715Z,3.20
2022-10-02T22:05:45.963Z,2.30
2022-10-02T22:08:19.784Z,2.57
2022-10-02T22:10:55.633Z,3.23
2022-10-02T22:13:28.977Z,2.80
2022-10-02T22:16:08.623Z,3.07
2022-10-02T22:18:45.363Z,2.20
2022-10-02T22:21:47.053Z,2.70
2022-10-02T22:24:34.179Z,2.80
2022-10-02T22:27:24.553Z,3.07
2022-10-02T22:29:53.439Z,3.33
2022-10-02T22:32:43.517Z,2.73
2022-10-02T22:35:17.661Z,2.93
2022-10-02T22:38:04.434Z,3.80
2022-10-02T22:40:43.236Z,2.10
2022-10-02T22:43:18.461Z,2.97
2022-10-02T22:45:48.636Z,2.40
2022-10-02T22:48:24.596Z,3.50
2022-10-02T22:50:55.621Z,2.87
2022-10-02T22:53:29.816Z,3.57
2022-10-02T22:55:57.611Z,2.67
2022-10-02T22:58:32.307Z,3.40
2022-10-02T23:01:07.417Z,2.60
2022-10-02T23:03:42.060Z,2.93
2022-10-02T23:06:21.760Z,3.37
2022-10-02T23:08:58.104Z,2.90
2022-10-02T23:11:29.320Z,2.53
2022-10-02T23:13:59.993Z,3.23
2022-10-02T23:16:31.830Z,2.73
2022-10-02T23:19:04.582Z,2.80
2022-10-02T23:21:45.618Z,2.70
2022-10-02T23:24:25.131Z,2.30
2022-10-02T23:26:55.346Z,2.90
2022-10-02T23:29:33.400Z,3.17
2022-10-02T23:32:13.730Z,3.63
2022-10-02T23:34:49.495Z,2.53
2022-10-02T23:37:21.199Z,2.77
2022-10-02T23:39:56.558Z,2.30
2022-10-02T23:42:30.731Z,3.80
2022-10-02T23:45:04.144Z,2.20
2022-10-02T23:47:43.529Z,2.80
2022-10-02T23:50:20.866Z,2.73
2022-10-02T23:52:58.692Z,4.40
2022-10-02T23:55:44.082Z,2.40
2022-10-02T23:58:34.081Z,3.73
